sensor_id;sensor_type;location;lat;lon;timestamp;temperature;humidity
42617;DHT22;28250;52.320;0.360;2022-08-21T00:01:38;15.20;99.90
42617;DHT22;28250;52.320;0.360;2022-08-21T00:04:06;15.30;99.90
42617;DHT22;28250;52.320;0.360;2022-08-21T00:06:33;15.20;99.90
42617;DHT22;28250;52.320;0.360;2022-08-21T00:09:05;15.30;99.90
42617;DHT22;28250;52.320;0.360;2022-08-21T00:11:33;15.20;99.90
42617;DHT22;28250;52.320;0.360;2022-08-21T00:14:02;15.30;99.90
42617;DHT22;28250;52.320;0.360;2022-08-21T00:16:29;15.40;99.90
42617;DHT22;28250;52.320;0.360;2022-08-21T00:18:56;15.50;99.90
42617;DHT22;28250;52.320;0.360;2022-08-21T00:21:22;15.50;99.90
42617;DHT22;28250;52.320;0.360;2022-08-21T00:23:50;15.50;99.90
42617;DHT22;28250;52.320;0.360;2022-08-21T00:26:17;15.50;99.90
42617;DHT22;28250;52.320;0.360;2022-08-21T00:28:43;15.50;99.90
42617;DHT22;28250;52.320;0.360;2022-08-21T00:31:11;15.50;99.90
42617;DHT22;28250;52.320;0.360;2022-08-21T00:33:38;15.40;99.90
42617;DHT22;28250;52.320;0.360;2022-08-21T00:36:04;15.40;99.90
42617;DHT22;28250;52.320;0.360;2022-08-21T00:38:31;15.40;99.90
42617;DHT22;28250;52.320;0.360;2022-08-21T00:40:59;15.40;99.90
42617;DHT22;28250;52.320;0.360;2022-08-21T00:43:30;15.30;99.90
42617;DHT22;28250;52.320;0.360;2022-08-21T00:45:58;15.20;99.90
42617;DHT22;28250;52.320;0.360;2022-08-21T00:48:26;15.20;99.90
42617;DHT22;28250;52.320;0.360;2022-08-21T00:50:57;15.10;99.90
42617;DHT22;28250;52.320;0.360;2022-08-21T00:53:26;15.00;99.90
42617;DHT22;28250;52.320;0.360;2022-08-21T00:55:54;14.90;99.90
42617;DHT22;28250;52.320;0.360;2022-08-21T00:58:21;14.80;99.90
42617;DHT22;28250;52.320;0.360;2022-08-21T01:00:48;14.70;99.90
42617;DHT22;28250;52.320;0.360;2022-08-21T01:03:18;14.70;99.90
42617;DHT22;28250;52.320;0.360;2022-08-21T01:05:47;14.60;99.90
42617;DHT22;28250;52.320;0.360;2022-08-21T01:10:59;14.60;99.90
42617;DHT22;28250;52.320;0.360;2022-08-21T01:13:26;14.60;99.90
42617;DHT22;28250;52.320;0.360;2022-08-21T01:15:55;14.60;99.90
42617;DHT22;28250;52.320;0.360;2022-08-21T01:18:22;14.60;99.90
42617;DHT22;28250;52.320;0.360;2022-08-21T01:21:11;14.60;99.90
42617;DHT22;28250;52.320;0.360;2022-08-21T01:23:40;14.50;99.90
42617;DHT22;28250;52.320;0.360;2022-08-21T01:26:09;14.50;99.90
42617;DHT22;28250;52.320;0.360;2022-08-21T01:28:37;14.50;99.90
42617;DHT22;28250;52.320;0.360;2022-08-21T01:31:08;14.50;99.90
42617;DHT22;28250;52.320;0.360;2022-08-21T01:33:36;14.50;99.90
42617;DHT22;28250;52.320;0.360;2022-08-21T01:36:04;14.60;99.90
42617;DHT22;28250;52.320;0.360;2022-08-21T01:38:30;14.50;99.90
42617;DHT22;28250;52.320;0.360;2022-08-21T01:40:57;14.50;99.90
42617;DHT22;28250;52.320;0.360;2022-08-21T01:43:23;14.40;99.90
42617;DHT22;28250;52.320;0.360;2022-08-21T01:45:50;14.40;99.90
42617;DHT22;28250;52.320;0.360;2022-08-21T01:48:16;14.30;99.90
42617;DHT22;28250;52.320;0.360;2022-08-21T01:50:43;14.40;99.90
42617;DHT22;28250;52.320;0.360;2022-08-21T01:53:09;14.40;99.90
42617;DHT22;28250;52.320;0.360;2022-08-21T01:55:36;14.40;99.90
42617;DHT22;28250;52.320;0.360;2022-08-21T01:58:02;14.40;99.90
42617;DHT22;28250;52.320;0.360;2022-08-21T02:00:29;14.30;99.90
42617;DHT22;28250;52.320;0.360;2022-08-21T02:02:55;14.30;99.90
42617;DHT22;28250;52.320;0.360;2022-08-21T02:05:22;14.20;99.90
42617;DHT22;28250;52.320;0.360;2022-08-21T02:07:49;14.20;99.90
42617;DHT22;28250;52.320;0.360;2022-08-21T02:10:20;14.20;99.90
42617;DHT22;28250;52.320;0.360;2022-08-21T02:12:49;14.10;99.90
42617;DHT22;28250;52.320;0.360;2022-08-21T02:15:16;14.10;99.90
42617;DHT22;28250;52.320;0.360;2022-08-21T02:17:47;14.20;99.90
42617;DHT22;28250;52.320;0.360;2022-08-21T02:20:17;14.10;99.90
42617;DHT22;28250;52.320;0.360;2022-08-21T02:22:45;14.00;99.90
42617;DHT22;28250;52.320;0.360;2022-08-21T02:25:13;13.90;99.90
42617;DHT22;28250;52.320;0.360;2022-08-21T02:27:40;13.90;99.90
42617;DHT22;28250;52.320;0.360;2022-08-21T02:30:10;13.90;99.90
42617;DHT22;28250;52.320;0.360;2022-08-21T02:32:38;13.80;99.90
42617;DHT22;28250;52.320;0.360;2022-08-21T02:35:05;13.70;99.90
42617;DHT22;28250;52.320;0.360;2022-08-21T02:37:32;13.70;99.90
42617;DHT22;28250;52.320;0.360;2022-08-21T02:40:00;13.70;99.90
42617;DHT22;28250;52.320;0.360;2022-08-21T02:42:27;13.70;99.90
42617;DHT22;28250;52.320;0.360;2022-08-21T02:44:54;13.70;99.90
42617;DHT22;28250;52.320;0.360;2022-08-21T02:47:20;13.70;99.90
42617;DHT22;28250;52.320;0.360;2022-08-21T02:49:46;13.60;99.90
42617;DHT22;28250;52.320;0.360;2022-08-21T02:52:13;13.60;99.90
42617;DHT22;28250;52.320;0.360;2022-08-21T02:54:40;13.50;99.90
42617;DHT22;28250;52.320;0.360;2022-08-21T02:57:06;13.50;99.90
42617;DHT22;28250;52.320;0.360;2022-08-21T02:59:34;13.50;99.90
42617;DHT22;28250;52.320;0.360;2022-08-21T03:02:01;13.40;99.90
42617;DHT22;28250;52.320;0.360;2022-08-21T03:04:28;13.30;99.90
42617;DHT22;28250;52.320;0.360;2022-08-21T03:06:54;13.30;99.90
42617;DHT22;28250;52.320;0.360;2022-08-21T03:09:21;13.30;99.90
42617;DHT22;28250;52.320;0.360;2022-08-21T03:11:47;13.30;99.90
42617;DHT22;28250;52.320;0.360;2022-08-21T03:14:14;13.30;99.90
42617;DHT22;28250;52.320;0.360;2022-08-21T03:16:40;13.30;99.90
42617;DHT22;28250;52.320;0.360;2022-08-21T03:19:09;13.20;99.90
42617;DHT22;28250;52.320;0.360;2022-08-21T03:21:37;13.30;99.90
42617;DHT22;28250;52.320;0.360;2022-08-21T03:24:03;13.30;99.90
42617;DHT22;28250;52.320;0.360;2022-08-21T03:26:30;13.30;99.90
42617;DHT22;28250;52.320;0.360;2022-08-21T03:28:56;13.20;99.90
42617;DHT22;28250;52.320;0.360;2022-08-21T03:31:23;13.10;99.90
42617;DHT22;28250;52.320;0.360;2022-08-21T03:33:54;13.10;99.90
42617;DHT22;28250;52.320;0.360;2022-08-21T03:36:21;13.10;99.90
42617;DHT22;28250;52.320;0.360;2022-08-21T03:38:48;13.00;99.90
42617;DHT22;28250;52.320;0.360;2022-08-21T03:41:14;13.00;99.90
42617;DHT22;28250;52.320;0.360;2022-08-21T03:43:41;12.90;99.90
42617;DHT22;28250;52.320;0.360;2022-08-21T03:46:07;13.00;99.90
42617;DHT22;28250;52.320;0.360;2022-08-21T03:48:35;13.10;99.90
42617;DHT22;28250;52.320;0.360;2022-08-21T03:51:03;13.00;99.90
42617;DHT22;28250;52.320;0.360;2022-08-21T03:53:30;13.10;99.90
42617;DHT22;28250;52.320;0.360;2022-08-21T03:55:56;13.10;99.90
42617;DHT22;28250;52.320;0.360;2022-08-21T03:58:24;13.10;99.90
42617;DHT22;28250;52.320;0.360;2022-08-21T04:00:52;13.10;99.90
42617;DHT22;28250;52.320;0.360;2022-08-21T04:03:21;13.10;99.90
42617;DHT22;28250;52.320;0.360;2022-08-21T04:05:48;13.10;99.90
42617;DHT22;28250;52.320;0.360;2022-08-21T04:08:14;13.20;99.90
42617;DHT22;28250;52.320;0.360;2022-08-21T04:10:45;13.10;99.90
42617;DHT22;28250;52.320;0.360;2022-08-21T04:13:12;13.10;99.90
42617;DHT22;28250;52.320;0.360;2022-08-21T04:15:40;13.10;99.90
42617;DHT22;28250;52.320;0.360;2022-08-21T04:18:07;13.10;99.90
42617;DHT22;28250;52.320;0.360;2022-08-21T04:20:34;13.10;99.90
42617;DHT22;28250;52.320;0.360;2022-08-21T04:23:01;13.10;99.90
42617;DHT22;28250;52.320;0.360;2022-08-21T04:25:28;13.30;99.90
42617;DHT22;28250;52.320;0.360;2022-08-21T04:27:55;13.20;99.90
42617;DHT22;28250;52.320;0.360;2022-08-21T04:30:21;13.30;99.90
42617;DHT22;28250;52.320;0.360;2022-08-21T04:32:48;13.30;99.90
42617;DHT22;28250;52.320;0.360;2022-08-21T04:35:17;13.30;99.90
42617;DHT22;28250;52.320;0.360;2022-08-21T04:37:45;13.20;99.90
42617;DHT22;28250;52.320;0.360;2022-08-21T04:40:12;13.20;99.90
42617;DHT22;28250;52.320;0.360;2022-08-21T04:42:43;13.20;99.90
42617;DHT22;28250;52.320;0.360;2022-08-21T04:45:23;13.30;99.90
42617;DHT22;28250;52.320;0.360;2022-08-21T04:47:53;13.30;99.90
42617;DHT22;28250;52.320;0.360;2022-08-21T04:50:22;13.40;99.90
42617;DHT22;28250;52.320;0.360;2022-08-21T04:53:04;13.40;99.90
42617;DHT22;28250;52.320;0.360;2022-08-21T04:55:35;13.50;99.90
42617;DHT22;28250;52.320;0.360;2022-08-21T04:58:06;13.60;99.90
42617;DHT22;28250;52.320;0.360;2022-08-21T05:00:33;13.60;99.90
42617;DHT22;28250;52.320;0.360;2022-08-21T05:03:00;13.70;99.90
42617;DHT22;28250;52.320;0.360;2022-08-21T05:05:28;13.70;99.90
42617;DHT22;28250;52.320;0.360;2022-08-21T05:07:55;13.70;99.90
42617;DHT22;28250;52.320;0.360;2022-08-21T05:10:23;13.80;99.90
42617;DHT22;28250;52.320;0.360;2022-08-21T05:12:50;13.90;99.90
42617;DHT22;28250;52.320;0.360;2022-08-21T05:15:16;14.00;99.90
42617;DHT22;28250;52.320;0.360;2022-08-21T05:17:42;14.00;99.90
42617;DHT22;28250;52.320;0.360;2022-08-21T05:20:10;14.00;99.90
42617;DHT22;28250;52.320;0.360;2022-08-21T05:22:37;14.10;99.90
42617;DHT22;28250;52.320;0.360;2022-08-21T05:25:05;14.10;99.90
42617;DHT22;28250;52.320;0.360;2022-08-21T05:27:32;14.20;99.90
42617;DHT22;28250;52.320;0.360;2022-08-21T05:29:58;14.20;99.90
42617;DHT22;28250;52.320;0.360;2022-08-21T05:32:25;14.20;99.90
42617;DHT22;28250;52.320;0.360;2022-08-21T05:34:53;14.20;99.90
42617;DHT22;28250;52.320;0.360;2022-08-21T05:37:20;14.20;99.90
42617;DHT22;28250;52.320;0.360;2022-08-21T05:39:47;14.30;99.90
42617;DHT22;28250;52.320;0.360;2022-08-21T05:42:13;14.40;99.90
42617;DHT22;28250;52.320;0.360;2022-08-21T05:44:39;14.40;99.90
42617;DHT22;28250;52.320;0.360;2022-08-21T05:47:07;14.50;99.90
42617;DHT22;28250;52.320;0.360;2022-08-21T05:49:34;14.50;99.90
42617;DHT22;28250;52.320;0.360;2022-08-21T05:52:01;14.60;99.90
42617;DHT22;28250;52.320;0.360;2022-08-21T05:54:28;14.70;99.90
42617;DHT22;28250;52.320;0.360;2022-08-21T05:56:54;14.70;99.90
42617;DHT22;28250;52.320;0.360;2022-08-21T05:59:21;14.80;99.90
42617;DHT22;28250;52.320;0.360;2022-08-21T06:01:47;14.90;99.90
42617;DHT22;28250;52.320;0.360;2022-08-21T06:04:13;14.90;99.90
42617;DHT22;28250;52.320;0.360;2022-08-21T06:06:40;14.90;99.90
42617;DHT22;28250;52.320;0.360;2022-08-21T06:09:08;15.00;99.90
42617;DHT22;28250;52.320;0.360;2022-08-21T06:11:35;15.10;99.90
42617;DHT22;28250;52.320;0.360;2022-08-21T06:14:02;15.10;99.90
42617;DHT22;28250;52.320;0.360;2022-08-21T06:16:28;15.20;99.90
42617;DHT22;28250;52.320;0.360;2022-08-21T06:18:55;15.20;99.90
42617;DHT22;28250;52.320;0.360;2022-08-21T06:21:21;15.30;99.90
42617;DHT22;28250;52.320;0.360;2022-08-21T06:23:47;15.30;99.90
42617;DHT22;28250;52.320;0.360;2022-08-21T06:26:14;15.40;99.90
42617;DHT22;28250;52.320;0.360;2022-08-21T06:28:41;15.50;99.90
42617;DHT22;28250;52.320;0.360;2022-08-21T06:31:17;15.50;99.90
42617;DHT22;28250;52.320;0.360;2022-08-21T06:33:45;15.60;99.90
42617;DHT22;28250;52.320;0.360;2022-08-21T06:36:12;15.70;99.90
42617;DHT22;28250;52.320;0.360;2022-08-21T06:38:39;15.90;99.90
42617;DHT22;28250;52.320;0.360;2022-08-21T06:41:05;16.30;99.90
42617;DHT22;28250;52.320;0.360;2022-08-21T06:43:32;16.30;99.90
42617;DHT22;28250;52.320;0.360;2022-08-21T06:45:59;16.30;99.90
42617;DHT22;28250;52.320;0.360;2022-08-21T06:48:25;16.30;99.90
42617;DHT22;28250;52.320;0.360;2022-08-21T06:50:51;16.30;99.90
42617;DHT22;28250;52.320;0.360;2022-08-21T06:53:19;16.40;99.90
42617;DHT22;28250;52.320;0.360;2022-08-21T06:55:46;16.60;99.90
42617;DHT22;28250;52.320;0.360;2022-08-21T06:58:13;16.80;99.90
42617;DHT22;28250;52.320;0.360;2022-08-21T07:00:42;17.40;99.90
42617;DHT22;28250;52.320;0.360;2022-08-21T07:05:57;19.00;99.90
42617;DHT22;28250;52.320;0.360;2022-08-21T07:08:24;19.90;99.90
42617;DHT22;28250;52.320;0.360;2022-08-21T07:10:53;20.10;99.90
42617;DHT22;28250;52.320;0.360;2022-08-21T07:13:21;20.00;99.90
42617;DHT22;28250;52.320;0.360;2022-08-21T07:15:47;20.40;99.90
42617;DHT22;28250;52.320;0.360;2022-08-21T07:18:14;20.20;99.90
42617;DHT22;28250;52.320;0.360;2022-08-21T07:20:41;20.30;99.90
42617;DHT22;28250;52.320;0.360;2022-08-21T07:23:09;20.20;99.90
42617;DHT22;28250;52.320;0.360;2022-08-21T07:25:38;20.50;99.90
42617;DHT22;28250;52.320;0.360;2022-08-21T07:28:05;20.80;99.90
42617;DHT22;28250;52.320;0.360;2022-08-21T07:30:31;20.60;99.90
42617;DHT22;28250;52.320;0.360;2022-08-21T07:32:57;20.40;99.90
42617;DHT22;28250;52.320;0.360;2022-08-21T07:35:24;20.50;99.90
42617;DHT22;28250;52.320;0.360;2022-08-21T07:37:51;20.50;99.90
42617;DHT22;28250;52.320;0.360;2022-08-21T07:40:17;20.40;99.90
42617;DHT22;28250;52.320;0.360;2022-08-21T07:42:45;20.10;99.90
42617;DHT22;28250;52.320;0.360;2022-08-21T07:45:13;20.00;99.90
42617;DHT22;28250;52.320;0.360;2022-08-21T07:47:41;20.10;99.90
42617;DHT22;28250;52.320;0.360;2022-08-21T07:50:07;20.00;99.90
42617;DHT22;28250;52.320;0.360;2022-08-21T07:52:34;19.70;99.90
42617;DHT22;28250;52.320;0.360;2022-08-21T07:55:01;19.80;99.90
42617;DHT22;28250;52.320;0.360;2022-08-21T07:57:28;19.50;99.90
42617;DHT22;28250;52.320;0.360;2022-08-21T07:59:54;19.50;99.90
42617;DHT22;28250;52.320;0.360;2022-08-21T08:02:22;19.50;99.90
42617;DHT22;28250;52.320;0.360;2022-08-21T08:04:50;19.50;99.90
42617;DHT22;28250;52.320;0.360;2022-08-21T08:07:17;19.50;99.90
42617;DHT22;28250;52.320;0.360;2022-08-21T08:09:43;19.40;99.90
42617;DHT22;28250;52.320;0.360;2022-08-21T08:12:10;19.40;99.90
42617;DHT22;28250;52.320;0.360;2022-08-21T08:14:36;19.50;99.90
42617;DHT22;28250;52.320;0.360;2022-08-21T08:17:03;19.60;99.90
42617;DHT22;28250;52.320;0.360;2022-08-21T08:19:29;19.70;99.90
42617;DHT22;28250;52.320;0.360;2022-08-21T08:21:56;19.70;99.90
42617;DHT22;28250;52.320;0.360;2022-08-21T08:24:22;19.70;99.90
42617;DHT22;28250;52.320;0.360;2022-08-21T08:26:48;19.60;99.90
42617;DHT22;28250;52.320;0.360;2022-08-21T08:29:15;19.70;99.90
42617;DHT22;28250;52.320;0.360;2022-08-21T08:31:41;19.80;99.90
42617;DHT22;28250;52.320;0.360;2022-08-21T08:34:07;19.50;99.90
42617;DHT22;28250;52.320;0.360;2022-08-21T08:36:34;19.70;99.90
42617;DHT22;28250;52.320;0.360;2022-08-21T08:39:03;19.90;99.90
42617;DHT22;28250;52.320;0.360;2022-08-21T08:41:31;20.00;99.90
42617;DHT22;28250;52.320;0.360;2022-08-21T08:43:59;20.10;99.90
42617;DHT22;28250;52.320;0.360;2022-08-21T08:46:38;20.00;99.90
42617;DHT22;28250;52.320;0.360;2022-08-21T08:49:10;20.10;99.90
42617;DHT22;28250;52.320;0.360;2022-08-21T08:54:13;20.10;99.90
42617;DHT22;28250;52.320;0.360;2022-08-21T08:56:42;20.30;99.90
42617;DHT22;28250;52.320;0.360;2022-08-21T08:59:18;20.30;99.90
42617;DHT22;28250;52.320;0.360;2022-08-21T09:01:46;20.20;99.90
42617;DHT22;28250;52.320;0.360;2022-08-21T09:04:13;20.00;99.90
42617;DHT22;28250;52.320;0.360;2022-08-21T09:06:51;20.10;99.90
42617;DHT22;28250;52.320;0.360;2022-08-21T09:14:47;20.20;99.90
42617;DHT22;28250;52.320;0.360;2022-08-21T09:17:38;20.30;99.90
42617;DHT22;28250;52.320;0.360;2022-08-21T09:25:41;20.60;99.90
42617;DHT22;28250;52.320;0.360;2022-08-21T09:28:12;20.60;99.90
42617;DHT22;28250;52.320;0.360;2022-08-21T09:30:40;20.60;99.90
42617;DHT22;28250;52.320;0.360;2022-08-21T09:33:07;20.70;99.90
42617;DHT22;28250;52.320;0.360;2022-08-21T09:35:35;20.80;99.90
42617;DHT22;28250;52.320;0.360;2022-08-21T09:38:04;20.70;99.90
42617;DHT22;28250;52.320;0.360;2022-08-21T09:45:33;20.30;99.90
42617;DHT22;28250;52.320;0.360;2022-08-21T09:48:14;20.40;99.90
42617;DHT22;28250;52.320;0.360;2022-08-21T09:50:44;20.60;99.90
42617;DHT22;28250;52.320;0.360;2022-08-21T09:58:42;21.10;99.90
42617;DHT22;28250;52.320;0.360;2022-08-21T10:01:17;21.40;99.90
42617;DHT22;28250;52.320;0.360;2022-08-21T10:03:45;21.30;99.90
42617;DHT22;28250;52.320;0.360;2022-08-21T10:11:47;21.50;99.90
42617;DHT22;28250;52.320;0.360;2022-08-21T10:19:30;22.50;99.90
42617;DHT22;28250;52.320;0.360;2022-08-21T10:22:06;22.40;99.90
42617;DHT22;28250;52.320;0.360;2022-08-21T10:35:47;22.30;99.90
42617;DHT22;28250;52.320;0.360;2022-08-21T10:38:40;22.20;99.90
42617;DHT22;28250;52.320;0.360;2022-08-21T10:41:28;22.40;99.90
42617;DHT22;28250;52.320;0.360;2022-08-21T10:52:09;22.30;99.90
42617;DHT22;28250;52.320;0.360;2022-08-21T10:54:52;22.30;99.90
42617;DHT22;28250;52.320;0.360;2022-08-21T11:00:34;22.80;99.90
42617;DHT22;28250;52.320;0.360;2022-08-21T11:03:08;23.20;99.90
42617;DHT22;28250;52.320;0.360;2022-08-21T11:05:47;23.40;99.90
42617;DHT22;28250;52.320;0.360;2022-08-21T11:08:23;23.30;99.90
42617;DHT22;28250;52.320;0.360;2022-08-21T11:10:57;23.00;99.90
42617;DHT22;28250;52.320;0.360;2022-08-21T11:13:30;23.10;99.90
42617;DHT22;28250;52.320;0.360;2022-08-21T11:16:05;23.20;99.90
42617;DHT22;28250;52.320;0.360;2022-08-21T11:18:35;23.10;99.90
42617;DHT22;28250;52.320;0.360;2022-08-21T11:23:39;22.90;99.90
42617;DHT22;28250;52.320;0.360;2022-08-21T11:26:10;22.60;99.90
42617;DHT22;28250;52.320;0.360;2022-08-21T11:28:47;22.90;99.90
42617;DHT22;28250;52.320;0.360;2022-08-21T11:31:24;23.30;99.90
42617;DHT22;28250;52.320;0.360;2022-08-21T11:47:33;24.50;99.90
42617;DHT22;28250;52.320;0.360;2022-08-21T11:50:25;24.40;99.90
42617;DHT22;28250;52.320;0.360;2022-08-21T11:52:56;24.60;99.90
42617;DHT22;28250;52.320;0.360;2022-08-21T11:55:29;24.20;99.90
42617;DHT22;28250;52.320;0.360;2022-08-21T11:58:07;24.60;99.90
42617;DHT22;28250;52.320;0.360;2022-08-21T12:00:38;24.90;99.90
42617;DHT22;28250;52.320;0.360;2022-08-21T12:08:36;24.30;99.90
42617;DHT22;28250;52.320;0.360;2022-08-21T12:11:20;24.60;99.90
42617;DHT22;28250;52.320;0.360;2022-08-21T12:13:53;24.00;99.90
42617;DHT22;28250;52.320;0.360;2022-08-21T12:19:08;24.60;99.90
42617;DHT22;28250;52.320;0.360;2022-08-21T12:29:22;24.70;99.90
42617;DHT22;28250;52.320;0.360;2022-08-21T12:34:22;24.20;99.90
42617;DHT22;28250;52.320;0.360;2022-08-21T12:36:54;24.40;99.90
42617;DHT22;28250;52.320;0.360;2022-08-21T12:39:24;24.30;99.90
42617;DHT22;28250;52.320;0.360;2022-08-21T12:41:54;24.50;99.90
42617;DHT22;28250;52.320;0.360;2022-08-21T12:44:28;24.80;99.90
42617;DHT22;28250;52.320;0.360;2022-08-21T12:47:03;24.50;99.90
42617;DHT22;28250;52.320;0.360;2022-08-21T12:49:36;24.20;99.90
42617;DHT22;28250;52.320;0.360;2022-08-21T12:52:16;24.80;99.90
42617;DHT22;28250;52.320;0.360;2022-08-21T12:54:47;24.20;99.90
42617;DHT22;28250;52.320;0.360;2022-08-21T12:57:18;25.40;99.90
42617;DHT22;28250;52.320;0.360;2022-08-21T12:59:51;25.70;99.90
42617;DHT22;28250;52.320;0.360;2022-08-21T13:02:22;25.40;99.90
42617;DHT22;28250;52.320;0.360;2022-08-21T13:04:51;25.60;99.90
42617;DHT22;28250;52.320;0.360;2022-08-21T13:07:22;25.40;99.90
42617;DHT22;28250;52.320;0.360;2022-08-21T13:09:53;26.00;99.90
42617;DHT22;28250;52.320;0.360;2022-08-21T13:12:23;25.90;99.90
42617;DHT22;28250;52.320;0.360;2022-08-21T13:14:51;25.50;99.90
42617;DHT22;28250;52.320;0.360;2022-08-21T13:17:23;25.20;99.90
42617;DHT22;28250;52.320;0.360;2022-08-21T13:19:57;26.20;99.90
42617;DHT22;28250;52.320;0.360;2022-08-21T13:22:26;25.70;99.90
42617;DHT22;28250;52.320;0.360;2022-08-21T13:24:54;24.90;99.90
42617;DHT22;28250;52.320;0.360;2022-08-21T13:27:24;25.30;99.90
42617;DHT22;28250;52.320;0.360;2022-08-21T13:32:48;26.10;99.90
42617;DHT22;28250;52.320;0.360;2022-08-21T13:37:49;25.40;99.90
42617;DHT22;28250;52.320;0.360;2022-08-21T13:40:22;25.70;99.90
42617;DHT22;28250;52.320;0.360;2022-08-21T13:42:56;26.20;99.90
42617;DHT22;28250;52.320;0.360;2022-08-21T13:45:30;26.20;99.90
42617;DHT22;28250;52.320;0.360;2022-08-21T13:48:01;25.50;99.90
42617;DHT22;28250;52.320;0.360;2022-08-21T13:50:31;25.10;99.90
42617;DHT22;28250;52.320;0.360;2022-08-21T13:53:07;25.80;99.90
42617;DHT22;28250;52.320;0.360;2022-08-21T13:55:50;26.00;99.90
42617;DHT22;28250;52.320;0.360;2022-08-21T13:58:26;25.80;99.90
42617;DHT22;28250;52.320;0.360;2022-08-21T14:00:56;25.80;99.90
42617;DHT22;28250;52.320;0.360;2022-08-21T14:03:30;25.80;99.90
42617;DHT22;28250;52.320;0.360;2022-08-21T14:06:01;25.50;99.90
42617;DHT22;28250;52.320;0.360;2022-08-21T14:08:54;26.40;99.90
42617;DHT22;28250;52.320;0.360;2022-08-21T14:11:26;27.50;99.90
42617;DHT22;28250;52.320;0.360;2022-08-21T14:14:00;26.60;99.90
42617;DHT22;28250;52.320;0.360;2022-08-21T14:19:24;26.60;99.90
42617;DHT22;28250;52.320;0.360;2022-08-21T14:21:54;26.30;99.90
42617;DHT22;28250;52.320;0.360;2022-08-21T14:26:52;27.70;99.90
42617;DHT22;28250;52.320;0.360;2022-08-21T14:29:24;27.60;99.90
42617;DHT22;28250;52.320;0.360;2022-08-21T14:31:58;28.10;99.90
42617;DHT22;28250;52.320;0.360;2022-08-21T14:34:27;27.80;99.50
42617;DHT22;28250;52.320;0.360;2022-08-21T14:36:57;28.40;99.90
42617;DHT22;28250;52.320;0.360;2022-08-21T14:39:25;27.50;98.80
42617;DHT22;28250;52.320;0.360;2022-08-21T14:41:59;26.80;99.90
42617;DHT22;28250;52.320;0.360;2022-08-21T14:44:28;27.20;99.90
42617;DHT22;28250;52.320;0.360;2022-08-21T14:47:00;28.10;99.90
42617;DHT22;28250;52.320;0.360;2022-08-21T14:49:33;27.60;99.90
42617;DHT22;28250;52.320;0.360;2022-08-21T14:52:01;26.90;99.90
42617;DHT22;28250;52.320;0.360;2022-08-21T14:54:39;26.90;99.90
42617;DHT22;28250;52.320;0.360;2022-08-21T14:57:13;27.70;99.90
42617;DHT22;28250;52.320;0.360;2022-08-21T14:59:43;28.10;99.90
42617;DHT22;28250;52.320;0.360;2022-08-21T15:02:11;28.50;99.90
42617;DHT22;28250;52.320;0.360;2022-08-21T15:04:41;28.50;99.90
42617;DHT22;28250;52.320;0.360;2022-08-21T15:07:11;28.30;98.80
42617;DHT22;28250;52.320;0.360;2022-08-21T15:09:40;28.00;99.30
42617;DHT22;28250;52.320;0.360;2022-08-21T15:12:11;28.10;99.60
42617;DHT22;28250;52.320;0.360;2022-08-21T15:14:43;27.20;99.20
42617;DHT22;28250;52.320;0.360;2022-08-21T15:17:13;27.30;99.70
42617;DHT22;28250;52.320;0.360;2022-08-21T15:19:43;27.50;99.90
42617;DHT22;28250;52.320;0.360;2022-08-21T15:22:10;27.40;99.40
42617;DHT22;28250;52.320;0.360;2022-08-21T15:24:36;27.30;99.90
42617;DHT22;28250;52.320;0.360;2022-08-21T15:27:08;27.20;99.20
42617;DHT22;28250;52.320;0.360;2022-08-21T15:29:36;27.20;99.40
42617;DHT22;28250;52.320;0.360;2022-08-21T15:32:18;27.20;99.90
42617;DHT22;28250;52.320;0.360;2022-08-21T15:34:58;27.10;99.40
42617;DHT22;28250;52.320;0.360;2022-08-21T15:37:31;26.80;99.40
42617;DHT22;28250;52.320;0.360;2022-08-21T15:40:02;27.00;99.80
42617;DHT22;28250;52.320;0.360;2022-08-21T15:42:38;27.20;99.90
42617;DHT22;28250;52.320;0.360;2022-08-21T15:45:13;27.50;98.70
42617;DHT22;28250;52.320;0.360;2022-08-21T15:47:43;26.70;99.90
42617;DHT22;28250;52.320;0.360;2022-08-21T15:50:12;26.40;98.90
42617;DHT22;28250;52.320;0.360;2022-08-21T15:52:40;26.40;99.60
42617;DHT22;28250;52.320;0.360;2022-08-21T15:55:12;26.60;99.40
42617;DHT22;28250;52.320;0.360;2022-08-21T15:57:43;26.60;99.90
42617;DHT22;28250;52.320;0.360;2022-08-21T16:00:17;26.20;99.90
42617;DHT22;28250;52.320;0.360;2022-08-21T16:02:47;25.30;99.40
42617;DHT22;28250;52.320;0.360;2022-08-21T16:05:15;25.40;99.90
42617;DHT22;28250;52.320;0.360;2022-08-21T16:07:46;25.40;99.90
42617;DHT22;28250;52.320;0.360;2022-08-21T16:10:21;25.50;99.90
42617;DHT22;28250;52.320;0.360;2022-08-21T16:12:55;25.60;99.90
42617;DHT22;28250;52.320;0.360;2022-08-21T16:15:25;25.80;99.90
42617;DHT22;28250;52.320;0.360;2022-08-21T16:17:53;26.10;99.90
42617;DHT22;28250;52.320;0.360;2022-08-21T16:20:23;26.40;99.20
42617;DHT22;28250;52.320;0.360;2022-08-21T16:22:52;26.10;99.90
42617;DHT22;28250;52.320;0.360;2022-08-21T16:25:25;26.30;99.90
42617;DHT22;28250;52.320;0.360;2022-08-21T16:27:53;25.60;99.00
42617;DHT22;28250;52.320;0.360;2022-08-21T16:30:24;25.50;99.90
42617;DHT22;28250;52.320;0.360;2022-08-21T16:32:53;25.80;99.90
42617;DHT22;28250;52.320;0.360;2022-08-21T16:35:24;25.80;98.90
42617;DHT22;28250;52.320;0.360;2022-08-21T16:37:53;25.80;99.90
42617;DHT22;28250;52.320;0.360;2022-08-21T16:40:22;25.80;99.90
42617;DHT22;28250;52.320;0.360;2022-08-21T16:42:50;25.70;99.90
42617;DHT22;28250;52.320;0.360;2022-08-21T16:45:18;25.40;99.90
42617;DHT22;28250;52.320;0.360;2022-08-21T16:47:46;25.40;99.90
42617;DHT22;28250;52.320;0.360;2022-08-21T16:50:14;25.20;99.90
42617;DHT22;28250;52.320;0.360;2022-08-21T16:52:43;25.00;99.90
42617;DHT22;28250;52.320;0.360;2022-08-21T16:55:09;24.80;99.90
42617;DHT22;28250;52.320;0.360;2022-08-21T16:57:43;25.10;99.90
42617;DHT22;28250;52.320;0.360;2022-08-21T17:00:12;24.80;99.90
42617;DHT22;28250;52.320;0.360;2022-08-21T17:02:44;25.00;99.90
42617;DHT22;28250;52.320;0.360;2022-08-21T17:05:15;25.10;99.90
42617;DHT22;28250;52.320;0.360;2022-08-21T17:07:42;25.30;99.90
42617;DHT22;28250;52.320;0.360;2022-08-21T17:10:12;25.60;99.90
42617;DHT22;28250;52.320;0.360;2022-08-21T17:12:56;25.40;99.30
42617;DHT22;28250;52.320;0.360;2022-08-21T17:15:37;25.30;99.90
42617;DHT22;28250;52.320;0.360;2022-08-21T17:18:07;25.30;99.90
42617;DHT22;28250;52.320;0.360;2022-08-21T17:20:43;25.10;99.90
42617;DHT22;28250;52.320;0.360;2022-08-21T17:23:15;25.10;99.90
42617;DHT22;28250;52.320;0.360;2022-08-21T17:25:45;24.70;99.90
42617;DHT22;28250;52.320;0.360;2022-08-21T17:28:16;24.50;99.90
42617;DHT22;28250;52.320;0.360;2022-08-21T17:30:50;24.60;99.90
42617;DHT22;28250;52.320;0.360;2022-08-21T17:33:23;24.60;99.90